Time;durP1;ratioP1;P1;durP2;ratioP2;P2;SDS_P1;SDS_P2;PMS_P1;PMS_P2;Temp;Humidity;BMP_temperature;BMP_pressure;BME280_temperature;BME280_humidity;BME280_pressure;Samples;Min_cycle;Max_cycle;Signal;HPM_P1;HPM_P2
2023/03/10 12:29:33;;;;;;;63.85;45.10;;;;;;;19.30;44.38;100740.66;5131584;27;20151;-51
2023/03/10 12:32:00;;;;;;;;;;;;;;;20.45;41.56;100738.50;5108017;28;20044;-49
2023/03/10 12:34:30;;;;;;;62.97;43.53;;;;;;;21.15;39.84;100734.91;5109040;28;19923;-49
2023/03/10 12:37:10;;;;;;;62.17;44.08;;;;;;;21.73;38.70;100739.56;5110363;28;20496;-52
2023/03/10 12:39:41;;;;;;;61.83;44.13;;;;;;;22.07;37.77;100740.16;5092376;28;20024;-52
2023/03/10 12:42:29;;;;;;;60.70;42.13;;;;;;;22.27;37.13;100728.31;5110690;28;20024;-51
2023/03/10 12:45:16;;;;;;;60.42;43.83;;;;;;;22.50;36.92;100729.56;5097762;28;20024;-49
2023/03/10 12:47:52;;;;;;;58.97;43.63;;;;;;;22.54;36.22;100724.41;5100490;28;20114;-51
2023/03/10 12:50:23;;;;;;;63.33;45.40;;;;;;;22.64;36.10;100735.03;5099526;28;20059;-50
2023/03/10 12:52:58;;;;;;;65.38;45.38;;;;;;;22.65;36.26;100728.94;5101992;28;20211;-52
2023/03/10 12:55:28;;;;;;;60.70;44.42;;;;;;;22.63;36.56;100731.50;5097166;28;20027;-49
2023/03/10 12:58:19;;;;;;;65.75;44.25;;;;;;;22.64;36.07;100694.06;5098057;28;20048;-52
2023/03/10 13:01:01;;;;;;;61.63;45.15;;;;;;;22.77;36.31;100716.03;5076696;28;20068;-52
2023/03/10 13:03:49;;;;;;;61.30;44.13;;;;;;;22.77;36.10;100716.03;5096880;28;20108;-51
2023/03/10 13:06:23;;;;;;;61.60;42.42;;;;;;;22.75;35.98;100707.28;5099055;28;20024;-52
2023/03/10 13:09:13;;;;;;;65.93;44.75;;;;;;;22.87;35.77;100710.06;5101136;28;20042;-51
2023/03/10 13:11:44;;;;;;;64.35;45.08;;;;;;;22.78;36.18;100694.25;5095704;28;20036;-49
2023/03/10 13:14:20;;;;;;;58.45;39.42;;;;;;;22.84;35.78;100691.72;5106454;28;20035;-49
2023/03/10 13:16:59;;;;;;;61.17;42.88;;;;;;;22.85;35.83;100685.63;5100351;28;20032;-49
2023/03/10 13:19:29;;;;;;;58.75;42.22;;;;;;;22.87;35.74;100688.28;5097129;28;20020;-52
2023/03/10 13:21:58;;;;;;;64.13;41.50;;;;;;;22.80;35.71;100681.19;5096544;28;20408;-52
2023/03/10 13:24:34;;;;;;;60.17;43.20;;;;;;;22.80;35.78;100678.56;5097502;28;20024;-50
2023/03/10 13:27:03;;;;;;;60.85;44.45;;;;;;;22.88;35.68;100677.81;5098420;28;20051;-52
2023/03/10 13:29:32;;;;;;;60.33;42.92;;;;;;;22.97;35.55;100684.91;5097766;28;20036;-49
2023/03/10 13:32:00;;;;;;;58.88;43.85;;;;;;;22.94;35.94;100681.38;5099695;22;20061;-50
2023/03/10 13:34:30;;;;;;;58.60;42.20;;;;;;;22.95;35.37;100672.69;5038467;28;20417;-50
2023/03/10 13:37:11;;;;;;;65.00;43.72;;;;;;;23.02;35.59;100664.03;5069288;28;20363;-51
2023/03/10 13:39:40;;;;;;;59.85;44.40;;;;;;;23.00;35.68;100676.25;5058643;28;20040;-53
2023/03/10 13:42:28;;;;;;;65.65;44.47;;;;;;;22.99;35.70;100661.41;5053592;28;20036;-51
2023/03/10 13:44:56;;;;;;;61.47;43.15;;;;;;;22.87;35.69;100652.53;5055635;28;20059;-52
2023/03/10 13:47:25;;;;;;;61.13;44.30;;;;;;;22.92;35.84;100649.97;5055439;28;20025;-50
2023/03/10 13:49:57;;;;;;;60.15;43.63;;;;;;;22.78;35.94;100639.34;5055315;28;20021;-50
2023/03/10 13:52:28;;;;;;;59.67;43.67;;;;;;;22.81;35.85;100635.88;5053666;28;20020;-53
2023/03/10 13:55:16;;;;;;;61.00;43.75;;;;;;;22.94;35.76;100637.78;5054647;28;20029;-52
2023/03/10 13:57:45;;;;;;;60.80;43.60;;;;;;;22.95;35.78;100638.66;5055320;28;20017;-50
2023/03/10 14:00:20;;;;;;;62.67;45.58;;;;;;;22.97;35.26;100636.97;5055341;28;20490;-50
2023/03/10 14:02:50;;;;;;;57.13;41.03;;;;;;;22.89;35.37;100640.34;5053581;28;20378;-51
2023/03/10 14:05:38;;;;;;;59.45;43.53;;;;;;;23.01;35.28;100643.97;5042334;28;20025;-52
2023/03/10 14:08:15;;;;;;;64.38;43.78;;;;;;;22.94;35.40;100640.41;5033493;28;20129;-53
2023/03/10 14:10:44;;;;;;;63.67;45.55;;;;;;;22.89;35.69;100640.34;5034542;28;20137;-52
2023/03/10 14:13:40;;;;;;;66.80;44.35;;;;;;;22.98;35.70;100643.94;5032983;28;20021;-50
2023/03/10 14:16:08;;;;;;;64.13;45.50;;;;;;;23.00;35.71;100643.09;5033996;28;20044;-50
2023/03/10 14:18:38;;;;;;;61.80;45.58;;;;;;;22.97;35.36;100643.06;5032955;28;20495;-50
2023/03/10 14:21:29;;;;;;;61.08;45.45;;;;;;;23.06;35.52;100650.13;5033742;28;20028;-50
2023/03/10 14:24:02;;;;;;;65.63;46.88;;;;;;;23.02;35.60;100645.72;5013193;28;20044;-52
2023/03/10 14:26:31;;;;;;;66.70;46.60;;;;;;;23.03;35.22;100647.47;5034384;28;20044;-51
2023/03/10 14:29:01;;;;;;;63.58;46.50;;;;;;;23.03;35.34;100645.75;5032559;28;20026;-50
2023/03/10 14:31:29;;;;;;;64.68;47.05;;;;;;;22.95;35.78;100628.22;5033217;28;20049;-50
2023/03/10 14:33:56;;;;;;;65.50;47.13;;;;;;;22.96;35.55;100635.19;5033138;28;20053;-51
2023/03/10 14:36:25;;;;;;;62.90;46.58;;;;;;;22.96;35.72;100643.03;5033923;28;20028;-51
2023/03/10 14:38:53;;;;;;;64.80;46.67;;;;;;;22.94;35.60;100637.78;5033614;28;20029;-51
2023/03/10 14:41:24;;;;;;;64.65;47.08;;;;;;;22.94;35.41;100639.53;5032143;28;20079;-51
2023/03/10 14:43:53;;;;;;;63.88;44.90;;;;;;;22.75;35.93;100644.53;5031902;28;20091;-51
2023/03/10 14:46:20;;;;;;;63.55;45.65;;;;;;;22.85;35.78;100651.63;5033845;28;20063;-52
2023/03/10 14:48:47;;;;;;;64.82;46.30;;;;;;;22.77;36.11;100642.81;5031843;28;20033;-51
2023/03/10 14:51:18;;;;;;;70.00;48.38;;;;;;;22.74;36.14;100661.06;5031107;28;20668;-52
2023/03/10 14:53:47;;;;;;;69.35;47.65;;;;;;;22.76;36.21;100659.34;5034397;28;20042;-48
2023/03/10 14:56:18;;;;;;;64.97;47.17;;;;;;;22.74;35.98;100668.91;5034852;28;20130;-52
2023/03/10 14:58:49;;;;;;;64.22;46.72;;;;;;;22.73;36.34;100654.09;5034224;28;20083;-50
2023/03/10 15:01:19;;;;;;;64.57;45.83;;;;;;;22.81;35.98;100659.41;5033271;28;20018;-49
2023/03/10 15:03:48;;;;;;;59.65;46.08;;;;;;;22.87;35.68;100649.91;5033008;28;20478;-50
2023/03/10 15:06:19;;;;;;;61.08;44.90;;;;;;;22.83;35.98;100647.25;5033562;28;20034;-50
2023/03/10 15:08:48;;;;;;;62.85;46.40;;;;;;;22.89;35.62;100644.72;5033830;28;20471;-49
2023/03/10 15:11:16;;;;;;;66.03;47.05;;;;;;;22.80;35.99;100635.00;5034086;28;20136;-51
2023/03/10 15:13:45;;;;;;;65.25;46.60;;;;;;;22.85;36.08;100635.94;5033212;28;20057;-50
2023/03/10 15:16:15;;;;;;;64.25;47.00;;;;;;;22.78;35.86;100626.25;5033769;28;20025;-49
2023/03/10 15:18:44;;;;;;;68.30;48.05;;;;;;;22.83;35.92;100621.09;5033224;28;20029;-50
2023/03/10 15:21:13;;;;;;;72.95;50.15;;;;;;;22.86;35.96;100616.75;5034055;28;20033;-51
2023/03/10 15:23:42;;;;;;;65.97;48.58;;;;;;;22.89;35.67;100615.94;5033929;28;20104;-49
2023/03/10 15:26:12;;;;;;;67.45;49.50;;;;;;;22.94;36.00;100610.75;5033738;28;20029;-50
2023/03/10 15:28:41;;;;;;;66.95;48.28;;;;;;;22.91;35.77;100611.59;5032353;28;20041;-50
2023/03/10 15:31:08;;;;;;;64.35;45.85;;;;;;;22.88;35.95;100609.81;5033656;28;20468;-51
2023/03/10 15:33:37;;;;;;;63.22;45.63;;;;;;;22.91;35.90;100601.16;5033789;28;20025;-50
2023/03/10 15:36:05;;;;;;;67.32;47.47;;;;;;;22.95;35.43;100602.91;5033310;28;20026;-50
2023/03/10 15:38:34;;;;;;;70.10;48.92;;;;;;;22.84;35.96;100594.06;5032992;28;20041;-53
2023/03/10 15:41:04;;;;;;;62.63;45.20;;;;;;;22.82;35.95;100585.31;5033438;28;20060;-50
2023/03/10 15:43:33;;;;;;;70.82;48.75;;;;;;;22.99;35.53;100593.38;5033009;28;20029;-50
2023/03/10 15:46:06;;;;;;;66.15;47.80;;;;;;;23.02;35.51;100586.44;5032787;28;20063;-51
2023/03/10 15:48:35;;;;;;;64.68;46.85;;;;;;;23.05;35.57;100582.97;5032762;28;20388;-50
2023/03/10 15:51:08;;;;;;;62.05;46.65;;;;;;;23.08;35.45;100583.00;5033510;28;20100;-50
2023/03/10 15:53:37;;;;;;;66.15;47.22;;;;;;;23.01;35.58;100575.94;5033183;28;20030;-53
2023/03/10 15:56:07;;;;;;;64.60;47.22;;;;;;;23.08;35.51;100569.94;5033277;28;20021;-50
2023/03/10 15:58:36;;;;;;;66.50;48.03;;;;;;;23.03;35.57;100572.50;5032994;28;20041;-53
2023/03/10 16:01:08;;;;;;;68.93;48.83;;;;;;;22.98;35.44;100561.09;5030779;28;20041;-51
2023/03/10 16:03:37;;;;;;;71.18;50.10;;;;;;;22.92;35.93;100567.16;5032844;28;20025;-51
2023/03/10 16:06:08;;;;;;;68.80;48.28;;;;;;;22.85;36.18;100540.91;5031894;28;20424;-54
2023/03/10 16:08:36;;;;;;;67.75;47.38;;;;;;;22.81;36.17;100541.72;5032280;28;20060;-52
2023/03/10 16:11:08;;;;;;;71.18;49.78;;;;;;;22.84;35.91;100547.00;5032051;28;20030;-51
2023/03/10 16:13:36;;;;;;;72.30;49.08;;;;;;;22.85;36.26;100541.78;5032086;28;20030;-51
2023/03/10 16:16:05;;;;;;;66.07;46.70;;;;;;;22.77;36.36;100538.22;5030531;28;20049;-51
2023/03/10 16:18:34;;;;;;;74.78;50.58;;;;;;;22.94;35.62;100537.50;5032278;28;20506;-50
2023/03/10 16:21:02;;;;;;;70.78;50.22;;;;;;;23.02;35.68;100530.59;5031886;28;20249;-50
2023/03/10 16:23:33;;;;;;;93.38;63.35;;;;;;;23.14;35.63;100527.25;5031678;28;20017;-53
2023/03/10 16:26:08;;;;;;;85.72;60.47;;;;;;;23.19;35.37;100536.03;5031953;28;20030;-52
2023/03/10 16:28:37;;;;;;;84.57;59.60;;;;;;;23.23;35.23;100524.75;5032129;28;20068;-53
2023/03/10 16:31:05;;;;;;;90.93;63.40;;;;;;;23.14;35.59;100507.22;5031665;28;20541;-54
2023/03/10 16:33:34;;;;;;;99.07;69.82;;;;;;;23.18;35.68;100514.19;5031725;28;20030;-53
2023/03/10 16:36:04;;;;;;;116.30;78.63;;;;;;;23.27;35.60;100510.81;5035858;28;20036;-49
2023/03/10 16:38:33;;;;;;;123.45;87.57;;;;;;;23.33;35.78;100515.25;5032040;28;20041;-50
2023/03/10 16:41:02;;;;;;;139.50;92.93;;;;;;;23.14;35.85;100525.53;5031811;28;20072;-50
2023/03/10 16:43:32;;;;;;;200.70;146.40;;;;;;;23.06;36.32;100533.28;5036030;28;20479;-49
2023/03/10 16:46:05;;;;;;;212.20;152.55;;;;;;;23.05;36.46;100533.25;5014340;28;20117;-50
2023/03/10 16:48:34;;;;;;;210.23;149.43;;;;;;;23.12;36.32;100532.47;5031951;28;20056;-50
2023/03/10 16:51:17;;;;;;;209.20;149.43;;;;;;;23.12;36.81;100508.03;5032354;28;20029;-49
2023/03/10 16:53:45;;;;;;;221.60;154.00;;;;;;;23.14;36.34;100508.94;5031714;28;20479;-49
2023/03/10 16:56:14;;;;;;;220.35;156.30;;;;;;;23.18;36.80;100500.25;5031549;28;20029;-49
2023/03/10 16:58:42;;;;;;;221.30;156.38;;;;;;;23.13;36.78;100484.53;5031969;28;20076;-49
2023/03/10 17:01:09;;;;;;;233.57;161.05;;;;;;;23.08;37.22;100482.72;5031853;28;20033;-49
2023/03/10 17:03:38;;;;;;;215.80;160.23;;;;;;;23.04;37.19;100481.81;5029900;28;20503;-50
2023/03/10 17:06:08;;;;;;;224.48;160.75;;;;;;;23.01;37.44;100466.97;5030150;28;20033;-50
2023/03/10 17:08:36;;;;;;;240.85;171.48;;;;;;;23.06;37.05;100469.63;5031646;28;20064;-49
2023/03/10 17:11:04;;;;;;;244.95;173.00;;;;;;;23.04;37.40;100460.88;5030574;28;20107;-49
2023/03/10 17:13:33;;;;;;;238.40;173.63;;;;;;;23.09;37.33;100453.94;5030676;28;20029;-50
2023/03/10 17:16:00;;;;;;;247.20;175.00;;;;;;;23.16;37.01;100455.78;5034425;28;20388;-49
2023/03/10 17:18:28;;;;;;;247.88;177.15;;;;;;;23.18;37.29;100451.41;5034801;28;20079;-50
2023/03/10 17:20:55;;;;;;;250.48;179.07;;;;;;;23.21;36.91;100469.78;5033701;28;20048;-50
2023/03/10 17:23:23;;;;;;;244.13;177.48;;;;;;;23.23;37.36;100476.75;5032748;28;20029;-53
2023/03/10 17:25:51;;;;;;;249.30;181.60;;;;;;;23.35;37.02;100476.84;5067682;28;20360;-49
2023/03/10 17:28:19;;;;;;;251.82;177.95;;;;;;;23.38;36.79;100471.66;5035310;28;20033;-50
2023/03/10 17:30:47;;;;;;;252.75;179.93;;;;;;;23.32;37.27;100461.16;5035355;28;20390;-51
2023/03/10 17:33:15;;;;;;;251.93;180.30;;;;;;;23.39;37.11;100462.94;5035718;28;20022;-50
2023/03/10 17:35:43;;;;;;;252.88;180.00;;;;;;;23.47;37.00;100470.84;5035275;28;20371;-51
2023/03/10 17:38:11;;;;;;;260.02;184.85;;;;;;;23.46;37.08;100488.31;5066538;28;20021;-49
2023/03/10 17:40:43;;;;;;;253.13;182.15;;;;;;;23.55;37.16;100486.59;5035254;28;20387;-51
2023/03/10 17:43:11;;;;;;;262.60;185.50;;;;;;;23.59;37.14;100460.44;5035743;28;20029;-50
2023/03/10 17:45:38;;;;;;;247.18;181.40;;;;;;;23.62;37.22;100470.09;5035422;28;20497;-53
2023/03/10 17:48:07;;;;;;;257.42;182.95;;;;;;;23.61;37.18;100476.19;5034301;28;20036;-51
2023/03/10 17:50:34;;;;;;;254.90;188.30;;;;;;;23.65;36.85;100475.34;5035365;28;20100;-52
2023/03/10 17:53:01;;;;;;;252.60;183.85;;;;;;;23.66;37.20;100474.50;5035290;28;20034;-52
2023/03/10 17:55:29;;;;;;;257.05;190.93;;;;;;;23.66;37.25;100466.63;5033822;28;20499;-49
2023/03/10 17:57:56;;;;;;;272.40;197.48;;;;;;;23.67;37.04;100455.25;5034819;28;20464;-49
2023/03/10 18:00:24;;;;;;;270.67;190.50;;;;;;;23.70;37.29;100449.19;5033534;28;20123;-52
2023/03/10 18:02:51;;;;;;;258.83;194.20;;;;;;;23.73;37.30;100441.34;5035100;28;20037;-49
2023/03/10 18:05:19;;;;;;;262.38;187.45;;;;;;;23.79;37.16;100442.25;5035109;28;20067;-52
2023/03/10 18:07:52;;;;;;;265.05;191.82;;;;;;;23.81;36.78;100431.78;5032928;28;20446;-51
2023/03/10 18:10:20;;;;;;;259.13;183.85;;;;;;;23.82;37.17;100423.06;5035026;28;20501;-50
2023/03/10 18:12:48;;;;;;;259.02;186.80;;;;;;;23.83;36.96;100419.56;5035163;28;20021;-49
2023/03/10 18:15:16;;;;;;;263.35;191.48;;;;;;;23.83;37.19;100409.97;5033467;28;20414;-53
2023/03/10 18:17:44;;;;;;;254.73;185.43;;;;;;;23.82;37.32;100400.38;5034321;28;20418;-53
2023/03/10 18:20:14;;;;;;;249.45;179.20;;;;;;;23.89;37.15;100405.63;5034132;28;20594;-50
2023/03/10 18:22:41;;;;;;;251.32;184.40;;;;;;;23.94;36.80;100388.19;5034868;28;20531;-51
2023/03/10 18:25:08;;;;;;;250.40;182.60;;;;;;;23.97;36.69;100388.25;5034781;28;20410;-49
2023/03/10 18:27:36;;;;;;;253.68;185.35;;;;;;;23.99;36.83;100383.88;5034192;28;20080;-49
2023/03/10 18:30:05;;;;;;;257.20;183.27;;;;;;;24.00;36.64;100379.50;5034291;28;20045;-51
2023/03/10 18:32:38;;;;;;;253.07;180.88;;;;;;;23.98;36.64;100384.75;5031888;28;20091;-49
2023/03/10 18:35:06;;;;;;;256.92;178.18;;;;;;;24.02;36.65;100390.88;5032521;28;20048;-50
2023/03/10 18:37:34;;;;;;;251.32;179.65;;;;;;;23.98;37.14;100376.91;5034151;28;20538;-51
2023/03/10 18:40:04;;;;;;;237.98;173.68;;;;;;;23.97;36.85;100381.25;5033918;28;20377;-49
2023/03/10 18:42:33;;;;;;;238.77;171.50;;;;;;;24.06;36.97;100376.91;5034874;28;20079;-49
2023/03/10 18:45:01;;;;;;;249.30;174.68;;;;;;;24.10;37.01;100378.66;5034650;28;20467;-54
2023/03/10 18:47:29;;;;;;;236.20;172.32;;;;;;;24.14;37.09;100392.66;5035119;28;20076;-51
2023/03/10 18:49:57;;;;;;;232.30;166.60;;;;;;;24.22;36.56;100389.19;5033158;28;20036;-50
2023/03/10 18:52:24;;;;;;;235.63;167.82;;;;;;;24.24;36.53;100392.66;5036278;28;20041;-51
2023/03/10 18:54:52;;;;;;;240.88;169.70;;;;;;;24.36;36.60;100404.09;5033870;28;20425;-51
2023/03/10 18:57:19;;;;;;;229.68;162.60;;;;;;;24.35;36.29;100405.81;5019545;28;20470;-50
2023/03/10 18:59:47;;;;;;;217.02;157.00;;;;;;;24.38;36.66;100404.97;5037266;28;20033;-51
2023/03/10 19:02:15;;;;;;;228.68;160.55;;;;;;;24.38;36.33;100405.81;5033320;28;20057;-49
2023/03/10 19:04:46;;;;;;;225.32;152.90;;;;;;;24.42;36.52;100419.81;5035262;28;20108;-49
2023/03/10 19:07:19;;;;;;;212.80;151.93;;;;;;;24.47;36.45;100422.47;5033620;28;20029;-50
2023/03/10 19:09:51;;;;;;;215.35;151.05;;;;;;;24.49;36.28;100415.47;5033075;28;20041;-51
2023/03/10 19:12:19;;;;;;;214.18;148.73;;;;;;;24.60;36.01;100423.34;5032642;28;20084;-49
2023/03/10 19:14:47;;;;;;;216.85;150.65;;;;;;;24.62;36.40;100417.25;5037104;28;20061;-49
2023/03/10 19:17:14;;;;;;;212.88;151.82;;;;;;;24.61;35.99;100412.88;5041436;28;20387;-50
2023/03/10 19:19:41;;;;;;;226.52;155.98;;;;;;;24.62;36.41;100409.38;5033223;28;20056;-49
2023/03/10 19:22:10;;;;;;;216.30;153.60;;;;;;;24.63;36.40;100413.75;5035949;28;20033;-50
2023/03/10 19:24:37;;;;;;;216.00;149.35;;;;;;;24.72;36.06;100420.78;5037991;28;20395;-49
2023/03/10 19:27:05;;;;;;;203.07;145.57;;;;;;;24.69;36.33;100419.00;5040981;28;20390;-49
2023/03/10 19:29:32;;;;;;;215.40;146.98;;;;;;;24.72;35.76;100415.56;5040456;28;20029;-50
2023/03/10 19:31:59;;;;;;;210.18;143.60;;;;;;;24.78;36.13;100412.91;5034857;28;20038;-49
2023/03/10 19:34:27;;;;;;;213.10;146.07;;;;;;;24.80;35.87;100405.06;5036728;28;20430;-49
2023/03/10 19:36:54;;;;;;;208.15;147.88;;;;;;;24.77;36.13;100389.31;5032660;28;20036;-50
2023/03/10 19:39:22;;;;;;;212.07;145.85;;;;;;;24.84;36.31;100391.94;5035899;28;20029;-49
2023/03/10 19:41:50;;;;;;;222.18;150.93;;;;;;;24.90;36.16;100392.81;5028800;28;20108;-50
2023/03/10 19:44:20;;;;;;;219.48;150.80;;;;;;;24.87;36.17;100405.06;5032578;28;20025;-53
2023/03/10 19:46:47;;;;;;;217.20;150.10;;;;;;;24.82;36.06;100400.69;5032122;28;20391;-49
2023/03/10 19:49:14;;;;;;;214.32;150.43;;;;;;;24.85;36.28;100383.19;5036398;28;20025;-49
2023/03/10 19:51:42;;;;;;;217.05;148.20;;;;;;;24.91;36.16;100382.31;5036403;28;20418;-51
2023/03/10 19:54:09;;;;;;;213.55;144.55;;;;;;;24.93;35.97;100390.19;5032227;28;20036;-49
2023/03/10 19:57:20;;;;;;;206.90;145.90;;;;;;;25.03;36.01;100386.69;5032260;28;20025;-50
2023/03/10 19:59:49;;;;;;;213.52;148.35;;;;;;;24.99;35.90;100384.94;5031778;28;20087;-52
2023/03/10 20:02:17;;;;;;;224.13;155.30;;;;;;;24.96;36.32;100387.56;5032204;28;20383;-49
2023/03/10 20:04:47;;;;;;;219.93;152.07;;;;;;;24.92;36.13;100378.81;5030701;28;20102;-52
2023/03/10 20:07:16;;;;;;;204.63;144.52;;;;;;;24.93;36.15;100372.69;5033799;28;20116;-51
2023/03/10 20:09:44;;;;;;;215.52;151.40;;;;;;;24.96;35.82;100363.94;5033023;28;20119;-49
2023/03/10 20:12:12;;;;;;;220.27;152.50;;;;;;;24.99;36.13;100366.56;5036475;28;20029;-49
2023/03/10 20:15:17;;;;;;;220.93;152.05;;;;;;;24.84;36.23;100331.59;5032234;28;20037;-51
2023/03/10 20:17:44;;;;;;;220.70;150.15;;;;;;;25.09;35.92;100352.56;5033026;28;20035;-49
2023/03/10 20:20:14;;;;;;;220.30;152.80;;;;;;;25.13;35.79;100345.56;5031774;28;20041;-50
2023/03/10 20:22:44;;;;;;;218.18;153.60;;;;;;;25.16;35.71;100328.06;5033042;28;20022;-53
2023/03/10 20:25:16;;;;;;;214.32;154.82;;;;;;;25.15;35.70;100314.94;5032721;28;20089;-49
2023/03/10 20:27:45;;;;;;;221.45;156.00;;;;;;;25.15;35.76;100301.81;5032785;28;20117;-51
2023/03/10 20:30:15;;;;;;;208.15;149.63;;;;;;;25.17;35.96;100300.03;5031575;28;20449;-50
2023/03/10 20:32:44;;;;;;;229.77;154.75;;;;;;;25.14;35.79;100319.31;5031460;28;20112;-50
